Hawthorne, California
Current Conditions -  °F | °C
As of 10:53 PM on Tuesday 25 Nov 2014 (Local Time) from KHHR Reporting Station
Clear Clear  
Wind Chill: 16°   Ceiling: Unl
Heat Index: 16°   Visibility: 10mi
Dew Point:   Wind: 0mph
Humidity: 67%   Direction: NA
Pressure: 30.28"   Gusts: NA
Location:  33.92°N, 118.35°W
Report Text: KHHR 260653Z AUTO 00000KT 10SM CLR 16/09 A3028 RMK AO2 SLP252 T01560094
Loading
Personal Weather Stations






























Interactive Weather Map New forecast layout! Learn more

10-Day Weather Forecast

Advertisements
Track Severe Weather on mobile